createdAt,value
2023-04-15T00:00:40.047Z,98130.31
2023-04-15T00:03:17.073Z,98140.53
2023-04-15T00:05:48.175Z,98132.81
2023-04-15T00:08:22.301Z,98137.25
2023-04-15T00:10:51.446Z,98134.81
2023-04-15T00:13:24.075Z,98128.63
2023-04-15T00:15:52.794Z,98131.34
2023-04-15T00:18:22.573Z,98132.06
2023-04-15T00:20:50.043Z,98132.31
2023-04-15T00:23:19.552Z,98129.56
2023-04-15T00:25:51.148Z,98136.03
2023-04-15T00:28:20.413Z,98142.03
2023-04-15T00:30:50.569Z,98150.91
2023-04-15T00:33:22.811Z,98155.44
2023-04-15T00:35:51.286Z,98153.94
2023-04-15T00:38:19.733Z,98158.38
2023-04-15T00:40:50.416Z,98164.38
2023-04-15T00:43:22.890Z,98162.38
2023-04-15T00:45:52.904Z,98169.84
2023-04-15T00:48:24.015Z,98158.16
2023-04-15T00:50:52.053Z,98162.84
2023-04-15T00:53:26.758Z,98166.81
2023-04-15T00:55:57.966Z,98161.59
2023-04-15T00:58:29.880Z,98168.56
2023-04-15T01:01:04.524Z,98175.28
2023-04-15T01:03:33.363Z,98171.50
2023-04-15T01:06:02.985Z,98174.94
2023-04-15T01:08:33.911Z,98173.25
2023-04-15T01:11:04.130Z,98174.72
2023-04-15T01:13:32.159Z,98174.44
2023-04-15T01:16:03.604Z,98176.94
2023-04-15T01:18:31.787Z,98183.91
2023-04-15T01:21:02.415Z,98188.13
2023-04-15T01:23:33.836Z,98182.13
2023-04-15T01:26:01.982Z,98196.34
2023-04-15T01:28:33.422Z,98190.88
2023-04-15T01:31:11.848Z,98189.09
2023-04-15T01:33:44.934Z,98182.13
2023-04-15T01:36:15.958Z,98193.31
2023-04-15T01:38:45.966Z,98198.28
2023-04-15T01:41:14.736Z,98204.00
2023-04-15T01:43:48.889Z,98194.81
2023-04-15T01:46:22.320Z,98194.31
2023-04-15T01:48:52.933Z,98205.25
2023-04-15T01:51:21.140Z,98198.00
2023-04-15T01:53:53.431Z,98204.00
2023-04-15T01:56:22.778Z,98202.44
2023-04-15T01:58:51.131Z,98201.25
2023-04-15T02:01:23.355Z,98200.97
2023-04-15T02:03:51.820Z,98202.44
2023-04-15T02:06:22.784Z,98205.94
2023-04-15T02:08:52.290Z,98208.63
2023-04-15T02:11:23.419Z,98209.91
2023-04-15T02:13:53.437Z,98203.38
2023-04-15T02:16:27.614Z,98216.84
2023-04-15T02:18:55.529Z,98216.84
2023-04-15T02:21:24.226Z,98217.38
2023-04-15T02:23:54.295Z,98220.34
2023-04-15T02:26:26.789Z,98221.28
2023-04-15T02:28:56.450Z,98222.03
2023-04-15T02:31:25.572Z,98223.50
2023-04-15T02:34:01.290Z,98231.25
2023-04-15T02:36:32.287Z,98225.75
2023-04-15T02:39:02.496Z,98224.72
2023-04-15T02:41:31.740Z,98232.44
2023-04-15T02:44:05.977Z,98225.19
2023-04-15T02:46:33.575Z,98228.38
2023-04-15T02:49:04.082Z,98226.16
2023-04-15T02:51:34.565Z,98227.41
2023-04-15T02:54:03.871Z,98229.13
2023-04-15T02:56:31.089Z,98228.16
2023-04-15T02:58:59.141Z,98225.88
2023-04-15T03:01:35.491Z,98231.13
2023-04-15T03:04:03.634Z,98231.34
2023-04-15T03:06:31.617Z,98229.88
2023-04-15T03:09:02.890Z,98231.34
2023-04-15T03:11:43.396Z,98240.31
2023-04-15T03:14:12.059Z,98239.81
2023-04-15T03:16:42.905Z,98238.09
2023-04-15T03:19:21.823Z,98239.56
2023-04-15T03:21:52.520Z,98233.28
2023-04-15T03:24:21.777Z,98238.53
2023-04-15T03:26:49.916Z,98231.59
2023-04-15T03:29:24.921Z,98239.53
2023-04-15T03:31:52.857Z,98236.53
2023-04-15T03:34:20.696Z,98249.16
2023-04-15T03:36:48.203Z,98250.19
2023-04-15T03:39:25.485Z,98250.44
2023-04-15T03:41:55.051Z,98248.41
2023-04-15T03:44:22.614Z,98248.41
2023-04-15T03:46:51.789Z,98246.19
2023-04-15T03:49:23.080Z,98249.16
2023-04-15T03:51:51.102Z,98253.63
2023-04-15T03:54:21.845Z,98253.63
2023-04-15T03:56:49.200Z,98253.84
2023-04-15T03:59:22.729Z,98263.34
2023-04-15T04:01:51.077Z,98266.59
2023-04-15T04:04:24.400Z,98267.53
2023-04-15T04:06:53.928Z,98269.06
2023-04-15T04:09:22.011Z,98266.69
2023-04-15T04:11:49.004Z,98274.19
2023-04-15T04:14:17.077Z,98276.94
2023-04-15T04:16:46.520Z,98282.41
2023-04-15T04:19:15.066Z,98282.84
2023-04-15T04:21:45.805Z,98292.34
2023-04-15T04:24:13.376Z,98287.63
2023-04-15T04:26:46.473Z,98298.06
2023-04-15T04:29:18.123Z,98295.03
2023-04-15T04:31:47.465Z,98296.75
2023-04-15T04:34:15.527Z,98306.97
2023-04-15T04:36:43.038Z,98307.44
2023-04-15T04:39:15.544Z,98312.69
2023-04-15T04:41:46.175Z,98312.91
2023-04-15T04:44:14.125Z,98310.63
2023-04-15T04:46:41.748Z,98314.56
2023-04-15T04:49:20.866Z,98313.81
2023-04-15T04:51:56.113Z,98312.81
2023-04-15T04:54:23.864Z,98321.47
2023-04-15T04:56:53.124Z,98316.97
2023-04-15T04:59:32.905Z,98318.16
2023-04-15T05:02:03.989Z,98324.09
2023-04-15T05:04:34.752Z,98319.84
2023-04-15T05:07:04.158Z,98327.78
2023-04-15T05:09:34.111Z,98320.53
2023-04-15T05:12:01.876Z,98324.03
2023-04-15T05:14:40.006Z,98321.28
2023-04-15T05:17:11.383Z,98321.53
2023-04-15T05:19:43.924Z,98326.25
2023-04-15T05:22:14.428Z,98332.69
2023-04-15T05:24:42.297Z,98332.69
2023-04-15T05:27:12.151Z,98334.50
2023-04-15T05:29:47.195Z,98337.41
2023-04-15T05:32:18.135Z,98334.81
2023-04-15T05:35:04.998Z,98335.72
2023-04-15T05:37:32.565Z,98347.66
2023-04-15T05:40:03.202Z,98347.13
2023-04-15T05:42:32.224Z,98348.41
2023-04-15T05:45:09.223Z,98346.41
2023-04-15T05:47:39.989Z,98351.38
2023-04-15T05:50:10.547Z,98349.06
2023-04-15T05:52:39.701Z,98355.81
2023-04-15T05:55:09.112Z,98359.16
2023-04-15T05:57:40.163Z,98353.16
2023-04-15T06:00:13.758Z,98363.25
2023-04-15T06:02:45.371Z,98361.84
2023-04-15T06:05:15.385Z,98365.63
2023-04-15T06:07:44.232Z,98372.25
2023-04-15T06:10:14.340Z,98361.34
2023-04-15T06:12:41.433Z,98366.75
2023-04-15T06:15:18.170Z,98366.47
2023-04-15T06:17:48.257Z,98370.31
2023-04-15T06:20:20.962Z,98369.16
2023-04-15T06:22:49.389Z,98378.56
2023-04-15T06:25:17.201Z,98375.97
2023-04-15T06:27:45.509Z,98382.00
2023-04-15T06:30:13.091Z,98380.34
2023-04-15T06:32:41.998Z,98379.63
2023-04-15T06:35:14.161Z,98376.66
2023-04-15T06:37:41.880Z,98375.50
2023-04-15T06:40:13.358Z,98382.97
2023-04-15T06:42:46.572Z,98384.75
2023-04-15T06:45:21.450Z,98391.06
2023-04-15T06:47:51.867Z,98383.63
2023-04-15T06:50:19.875Z,98394.09
2023-04-15T06:52:50.979Z,98395.19
2023-04-15T06:55:21.736Z,98394.84
2023-04-15T06:57:49.009Z,98402.78
2023-04-15T07:00:18.509Z,98400.16
2023-04-15T07:02:55.904Z,98402.59
2023-04-15T07:05:26.275Z,98399.63
2023-04-15T07:07:55.940Z,98406.50
2023-04-15T07:10:26.382Z,98410.03
2023-04-15T07:12:55.211Z,98413.19
2023-04-15T07:15:24.017Z,98414.47
2023-04-15T07:17:54.818Z,98423.88
2023-04-15T07:20:25.203Z,98427.19
2023-04-15T07:22:53.431Z,98413.75
2023-04-15T07:25:24.684Z,98430.25
2023-04-15T07:27:53.077Z,98424.13
2023-04-15T07:30:20.556Z,98432.03
2023-04-15T07:32:50.823Z,98434.41
2023-04-15T07:35:21.486Z,98435.19
2023-04-15T07:37:48.737Z,98430.53
2023-04-15T07:40:17.346Z,98442.38
2023-04-15T07:42:44.487Z,98437.78
2023-04-15T07:45:17.823Z,98440.38
2023-04-15T07:47:47.474Z,98448.38
2023-04-15T07:50:17.237Z,98449.09
2023-04-15T07:52:48.680Z,98451.06
2023-04-15T07:55:28.308Z,98456.88
2023-04-15T07:57:56.306Z,98451.41
2023-04-15T08:00:23.870Z,98457.31
2023-04-15T08:02:53.438Z,98455.00
2023-04-15T08:05:28.126Z,98450.06
2023-04-15T08:07:55.705Z,98461.59
2023-04-15T08:10:28.445Z,98453.59
2023-04-15T08:13:00.125Z,98459.78
2023-04-15T08:15:31.170Z,98462.75
2023-04-15T08:18:02.986Z,98470.88
2023-04-15T08:20:33.785Z,98472.84
2023-04-15T08:23:02.481Z,98475.88
2023-04-15T08:25:41.890Z,98479.09
2023-04-15T08:28:14.147Z,98497.84
2023-04-15T08:30:44.769Z,98479.78
2023-04-15T08:33:13.703Z,98475.75
2023-04-15T08:35:42.194Z,98488.28
2023-04-15T08:38:10.324Z,98490.47
2023-04-15T08:40:42.650Z,98490.41
2023-04-15T08:43:26.683Z,98487.16
2023-04-15T08:46:00.209Z,98495.06
2023-04-15T08:48:29.520Z,98488.22
2023-04-15T08:51:01.733Z,98501.88
2023-04-15T08:53:30.164Z,98502.84
2023-04-15T08:56:07.326Z,98507.81
2023-04-15T08:58:36.711Z,98509.34
2023-04-15T09:01:08.845Z,98518.03
2023-04-15T09:03:41.384Z,98503.91
2023-04-15T09:06:30.252Z,98517.81
2023-04-15T09:09:00.067Z,98519.91
2023-04-15T09:11:33.245Z,98522.75
2023-04-15T09:14:02.542Z,98523.22
2023-04-15T09:16:54.943Z,98531.25
2023-04-15T09:19:25.758Z,98521.16
2023-04-15T09:21:59.665Z,98524.47
2023-04-15T09:24:40.241Z,98525.50
2023-04-15T09:27:08.147Z,98533.03
2023-04-15T09:29:43.540Z,98533.84
2023-04-15T09:32:14.621Z,98529.38
2023-04-15T09:34:48.410Z,98531.84
2023-04-15T09:37:32.083Z,98533.88
2023-04-15T09:40:02.859Z,98537.44
2023-04-15T09:42:33.780Z,98538.97
2023-04-15T09:45:10.227Z,98544.47
2023-04-15T09:47:41.947Z,98545.22
2023-04-15T09:50:09.380Z,98550.84
2023-04-15T09:52:43.653Z,98548.09
2023-04-15T09:55:20.433Z,98556.19
2023-04-15T09:57:55.586Z,98553.41
2023-04-15T10:00:25.695Z,98554.25
2023-04-15T10:02:58.333Z,98555.72
2023-04-15T10:05:26.781Z,98560.59
2023-04-15T10:08:03.302Z,98555.31
2023-04-15T10:10:31.842Z,98559.84
2023-04-15T10:13:10.401Z,98560.00
2023-04-15T10:15:39.006Z,98566.78
2023-04-15T10:18:08.345Z,98578.81
2023-04-15T10:20:37.282Z,98569.59
2023-04-15T10:23:25.923Z,98563.75
2023-04-15T10:26:00.421Z,98574.97
2023-04-15T10:28:29.694Z,98579.56
2023-04-15T10:31:01.857Z,98580.16
2023-04-15T10:33:31.608Z,98586.50
2023-04-15T10:36:03.899Z,98587.19
2023-04-15T10:38:38.124Z,98582.31
2023-04-15T10:41:19.949Z,98577.00
2023-04-15T10:43:49.882Z,98583.25
2023-04-15T10:46:23.258Z,98585.16
2023-04-15T10:48:53.578Z,98586.88
2023-04-15T10:51:32.153Z,98585.47
2023-04-15T10:54:01.278Z,98589.06
2023-04-15T10:56:32.936Z,98594.28
2023-04-15T10:59:03.674Z,98597.69
2023-04-15T11:01:57.500Z,98594.69
2023-04-15T11:04:45.123Z,98605.53
2023-04-15T11:07:21.722Z,98603.69
2023-04-15T11:09:50.909Z,98601.69
2023-04-15T11:12:19.217Z,98607.28
2023-04-15T11:14:49.878Z,98609.88
2023-04-15T11:17:30.017Z,98608.84
2023-04-15T11:20:00.800Z,98608.34
2023-04-15T11:22:32.454Z,98624.53
2023-04-15T11:25:02.107Z,98624.56
2023-04-15T11:27:31.272Z,98618.91
2023-04-15T11:29:58.838Z,98622.81
2023-04-15T11:32:27.247Z,98625.13
2023-04-15T11:34:58.692Z,98626.94
2023-04-15T11:37:35.854Z,98629.34
2023-04-15T11:40:06.691Z,98626.88
2023-04-15T11:42:49.506Z,98630.09
2023-04-15T11:45:23.617Z,98639.78
2023-04-15T11:47:53.986Z,98630.66
2023-04-15T11:50:23.471Z,98632.97
2023-04-15T11:52:58.341Z,98634.81
2023-04-15T11:55:28.781Z,98633.38
2023-04-15T11:58:08.424Z,98632.34
2023-04-15T12:00:35.861Z,98646.03
2023-04-15T12:03:15.303Z,98641.41
2023-04-15T12:06:01.280Z,98640.69
2023-04-15T12:08:51.224Z,98646.16
2023-04-15T12:11:18.730Z,98650.78
2023-04-15T12:13:50.173Z,98652.34
2023-04-15T12:16:20.039Z,98658.09
2023-04-15T12:18:50.292Z,98647.69
2023-04-15T12:21:21.665Z,98658.16
2023-04-15T12:23:52.421Z,98651.53
2023-04-15T12:26:28.350Z,98661.97
2023-04-15T12:29:05.846Z,98659.09
2023-04-15T12:31:33.387Z,98658.28
2023-04-15T12:34:01.223Z,98666.50
2023-04-15T12:36:28.665Z,98674.13
2023-04-15T12:38:56.096Z,98678.06
2023-04-15T12:41:24.576Z,98669.75
2023-04-15T12:43:52.196Z,98673.28
2023-04-15T12:46:19.242Z,98669.00
2023-04-15T12:48:48.794Z,98676.25
2023-04-15T12:51:15.695Z,98682.56
2023-04-15T12:53:43.124Z,98682.78
2023-04-15T12:56:10.197Z,98678.25
2023-04-15T12:58:37.576Z,98682.25
2023-04-15T13:01:04.635Z,98686.69
2023-04-15T13:03:34.538Z,98692.47
2023-04-15T13:06:02.475Z,98689.25
2023-04-15T13:08:32.460Z,98693.84
2023-04-15T13:11:01.846Z,98703.19
2023-04-15T13:13:29.161Z,98700.50
2023-04-15T13:15:56.599Z,98702.78
2023-04-15T13:18:23.964Z,98708.63
2023-04-15T13:20:51.360Z,98706.16
2023-04-15T13:23:18.718Z,98711.06
2023-04-15T13:25:45.982Z,98705.38
2023-04-15T13:28:18.242Z,98708.19
2023-04-15T13:30:46.023Z,98712.38
2023-04-15T13:33:13.272Z,98712.91
2023-04-15T13:35:42.583Z,98702.25
2023-04-15T13:38:09.939Z,98712.84
2023-04-15T13:40:36.795Z,98712.69
2023-04-15T13:43:12.326Z,98716.56
2023-04-15T13:45:39.382Z,98713.50
2023-04-15T13:48:06.642Z,98719.88
2023-04-15T13:50:33.595Z,98721.31
2023-04-15T13:53:01.114Z,98724.66
2023-04-15T13:55:28.820Z,98729.25
2023-04-15T13:57:58.719Z,98720.44
2023-04-15T14:00:25.716Z,98720.06
2023-04-15T14:02:53.164Z,98718.78
2023-04-15T14:05:20.469Z,98721.75
2023-04-15T14:07:47.997Z,98718.31
2023-04-15T14:10:14.994Z,98723.31
2023-04-15T14:12:42.236Z,98730.00
2023-04-15T14:15:09.439Z,98726.06
2023-04-15T14:17:37.032Z,98733.44
2023-04-15T14:20:04.184Z,98737.75
2023-04-15T14:22:34.069Z,98734.06
2023-04-15T14:25:01.860Z,98734.13
2023-04-15T14:27:29.190Z,98744.34
2023-04-15T14:29:59.077Z,98743.88
2023-04-15T14:32:27.313Z,98754.31
2023-04-15T14:34:54.489Z,98752.94
2023-04-15T14:37:21.822Z,98758.00
2023-04-15T14:39:51.332Z,98761.28
2023-04-15T14:42:21.175Z,98768.78
2023-04-15T14:44:50.935Z,98760.88
2023-04-15T14:47:18.384Z,98765.84
2023-04-15T14:49:47.861Z,98769.19
2023-04-15T14:52:15.834Z,98770.16
2023-04-15T14:54:43.508Z,98767.19
2023-04-15T14:57:10.907Z,98771.53
2023-04-15T14:59:40.720Z,98778.38
2023-04-15T15:02:08.604Z,98777.47
2023-04-15T15:04:36.230Z,98771.16
2023-04-15T15:07:03.700Z,98774.75
2023-04-15T15:09:32.389Z,98785.97
2023-04-15T15:12:04.911Z,98784.06
2023-04-15T15:14:33.772Z,98776.88
2023-04-15T15:17:04.725Z,98787.38
2023-04-15T15:19:31.810Z,98796.31
2023-04-15T15:22:01.467Z,98796.13
2023-04-15T15:24:28.937Z,98798.66
2023-04-15T15:27:04.279Z,98798.78
2023-04-15T15:29:37.739Z,98793.91
2023-04-15T15:32:08.003Z,98803.75
2023-04-15T15:34:37.328Z,98804.50
2023-04-15T15:37:05.849Z,98805.34
2023-04-15T15:39:43.797Z,98806.84
2023-04-15T15:42:15.429Z,98812.25
2023-04-15T15:44:45.066Z,98818.44
2023-04-15T15:47:17.175Z,98816.06
2023-04-15T15:49:45.714Z,98814.59
2023-04-15T15:52:13.080Z,98813.44
2023-04-15T15:54:41.387Z,98817.16
2023-04-15T15:57:09.311Z,98821.59
2023-04-15T15:59:43.543Z,98822.13
2023-04-15T16:02:16.793Z,98821.72
2023-04-15T16:04:44.033Z,98823.53
2023-04-15T16:07:19.229Z,98829.66
2023-04-15T16:09:49.129Z,98829.66
2023-04-15T16:12:18.323Z,98835.25
2023-04-15T16:14:48.934Z,98840.44
2023-04-15T16:17:16.683Z,98842.25
2023-04-15T16:19:55.440Z,98834.28
2023-04-15T16:22:31.367Z,98835.78
2023-04-15T16:24:59.916Z,98835.25
2023-04-15T16:27:29.049Z,98846.28
2023-04-15T16:30:04.715Z,98849.75
2023-04-15T16:32:35.158Z,98849.75
2023-04-15T16:35:08.845Z,98851.56
2023-04-15T16:37:39.054Z,98853.88
2023-04-15T16:40:06.805Z,98857.41
2023-04-15T16:42:37.149Z,98864.19
2023-04-15T16:45:06.162Z,98863.97
2023-04-15T16:47:36.598Z,98865.31
2023-04-15T16:50:12.084Z,98874.13
2023-04-15T16:52:41.831Z,98872.72
2023-04-15T16:55:09.584Z,98877.50
2023-04-15T16:58:00.377Z,98880.03
2023-04-15T17:00:29.665Z,98888.84
2023-04-15T17:03:05.272Z,98890.72
2023-04-15T17:05:35.341Z,98898.00
2023-04-15T17:08:04.956Z,98889.09
2023-04-15T17:10:32.954Z,98900.66
2023-04-15T17:13:01.346Z,98896.16
2023-04-15T17:15:32.942Z,98891.47
2023-04-15T17:18:02.660Z,98899.50
2023-04-15T17:20:33.582Z,98904.38
2023-04-15T17:23:03.394Z,98900.63
2023-04-15T17:25:33.120Z,98914.00
2023-04-15T17:28:02.203Z,98912.72
2023-04-15T17:30:29.711Z,98925.81
2023-04-15T17:33:03.760Z,98918.81
2023-04-15T17:35:56.331Z,98930.44
2023-04-15T17:38:30.491Z,98931.78
2023-04-15T17:41:03.758Z,98939.56
2023-04-15T17:43:32.368Z,98944.13
2023-04-15T17:46:04.494Z,98947.75
2023-04-15T17:48:37.589Z,98952.50
2023-04-15T17:51:07.501Z,98954.34
2023-04-15T17:53:39.547Z,98953.19
2023-04-15T17:56:13.375Z,98962.78
2023-04-15T17:58:46.884Z,98968.09
2023-04-15T18:01:14.992Z,98968.22
2023-04-15T18:03:42.956Z,98970.53
2023-04-15T18:06:12.180Z,98972.09
2023-04-15T18:08:43.247Z,98966.44
2023-04-15T18:11:15.286Z,98975.53
2023-04-15T18:13:44.212Z,98975.91
2023-04-15T18:16:14.074Z,98983.25
2023-04-15T18:18:44.263Z,98982.00
2023-04-15T18:21:17.973Z,98987.56
2023-04-15T18:23:54.128Z,98988.38
2023-04-15T18:26:22.649Z,98990.38
2023-04-15T18:28:55.489Z,98994.66
2023-04-15T18:31:23.450Z,99006.44
2023-04-15T18:33:53.132Z,99000.97
2023-04-15T18:36:20.897Z,99002.00
2023-04-15T18:38:49.571Z,99007.25
2023-04-15T18:41:18.596Z,99014.28
2023-04-15T18:43:49.628Z,99010.31
2023-04-15T18:46:19.088Z,99017.53
2023-04-15T18:48:48.166Z,99022.06
2023-04-15T18:51:17.406Z,99033.53
2023-04-15T18:53:53.189Z,99027.06
2023-04-15T18:56:28.609Z,99030.31
2023-04-15T18:59:09.004Z,99034.28
2023-04-15T19:01:53.029Z,99041.00
2023-04-15T19:04:21.820Z,99035.25
2023-04-15T19:06:56.726Z,99043.00
2023-04-15T19:09:25.002Z,99043.75
2023-04-15T19:11:57.814Z,99044.97
2023-04-15T19:14:32.658Z,99045.97
2023-04-15T19:17:05.230Z,99055.44
2023-04-15T19:19:52.409Z,99052.44
2023-04-15T19:22:24.177Z,99054.97
2023-04-15T19:24:52.079Z,99048.72
2023-04-15T19:27:22.536Z,99055.44
2023-04-15T19:29:56.073Z,99053.47
2023-04-15T19:32:26.148Z,99060.94
2023-04-15T19:35:11.305Z,99070.44
2023-04-15T19:37:41.630Z,99066.94
2023-04-15T19:40:09.689Z,99061.44
2023-04-15T19:42:48.803Z,99063.41
2023-04-15T19:45:29.058Z,99070.91
2023-04-15T19:48:02.946Z,99069.41
2023-04-15T19:50:35.307Z,99067.63
2023-04-15T19:53:03.186Z,99071.09
2023-04-15T19:55:31.104Z,99062.84
2023-04-15T19:58:05.345Z,99071.59
2023-04-15T20:00:38.406Z,99077.31
2023-04-15T20:03:08.482Z,99080.03
2023-04-15T20:05:41.002Z,99076.03
2023-04-15T20:08:12.632Z,99088.50
2023-04-15T20:10:48.435Z,99087.00
2023-04-15T20:13:16.671Z,99093.19
2023-04-15T20:15:45.641Z,99104.16
2023-04-15T20:18:25.613Z,99103.63
2023-04-15T20:21:04.475Z,99106.88
2023-04-15T20:23:42.992Z,99116.84
2023-04-15T20:26:13.368Z,99119.31
2023-04-15T20:28:44.145Z,99122.06
2023-04-15T20:31:14.746Z,99119.06
2023-04-15T20:33:43.257Z,99122.28
2023-04-15T20:36:16.349Z,99123.03
2023-04-15T20:38:44.594Z,99123.03
2023-04-15T20:41:14.892Z,99125.28
2023-04-15T20:43:45.738Z,99130.53
2023-04-15T20:46:21.214Z,99128.78
2023-04-15T20:48:55.629Z,99134.03
2023-04-15T20:51:22.872Z,99135.78
2023-04-15T20:53:53.431Z,99136.81
2023-04-15T20:56:24.171Z,99134.34
2023-04-15T20:58:54.324Z,99144.31
2023-04-15T21:01:24.909Z,99141.84
2023-04-15T21:03:55.309Z,99147.59
2023-04-15T21:06:28.399Z,99140.84
2023-04-15T21:08:59.668Z,99146.59
2023-04-15T21:14:07.693Z,99157.56
2023-04-15T21:16:38.055Z,99155.31
2023-04-15T21:19:07.833Z,99159.31
2023-04-15T21:21:36.284Z,99155.53
2023-04-15T21:24:03.784Z,99158.50
2023-04-15T21:26:36.639Z,99160.22
2023-04-15T21:29:04.344Z,99157.25
2023-04-15T21:31:33.225Z,99168.19
2023-04-15T21:34:03.721Z,99162.66
2023-04-15T21:36:31.793Z,99173.09
2023-04-15T21:38:59.378Z,99166.84
2023-04-15T21:41:31.172Z,99170.56
2023-04-15T21:43:59.826Z,99172.56
2023-04-15T21:46:33.010Z,99183.47
2023-04-15T21:49:03.473Z,99183.16
2023-04-15T21:51:33.626Z,99177.66
2023-04-15T21:54:05.487Z,99178.84
2023-04-15T21:56:47.637Z,99182.03
2023-04-15T21:59:19.061Z,99187.47
2023-04-15T22:01:49.375Z,99191.66
2023-04-15T22:04:23.202Z,99195.59
2023-04-15T22:07:11.552Z,99193.53
2023-04-15T22:09:39.069Z,99193.59
2023-04-15T22:12:07.121Z,99190.34
2023-04-15T22:14:36.192Z,99200.22
2023-04-15T22:17:10.729Z,99204.34
2023-04-15T22:19:42.781Z,99209.97
2023-04-15T22:22:12.239Z,99208.69
2023-04-15T22:24:49.067Z,99209.19
2023-04-15T22:27:20.773Z,99210.34
2023-04-15T22:29:48.237Z,99213.03
2023-04-15T22:32:16.604Z,99212.22
2023-04-15T22:34:45.248Z,99221.09
2023-04-15T22:37:12.402Z,99226.03
2023-04-15T22:39:44.235Z,99224.75
2023-04-15T22:42:14.846Z,99227.97
2023-04-15T22:44:46.693Z,99230.41
2023-04-15T22:47:17.146Z,99227.13
2023-04-15T22:49:49.929Z,99230.41
2023-04-15T22:52:29.537Z,99239.69
2023-04-15T22:55:07.054Z,99235.00
2023-04-15T22:57:34.891Z,99230.97
2023-04-15T23:00:06.473Z,99240.94
2023-04-15T23:02:35.203Z,99255.59
2023-04-15T23:05:12.449Z,99246.63
2023-04-15T23:07:40.917Z,99252.84
2023-04-15T23:10:09.712Z,99253.38
2023-04-15T23:12:37.384Z,99247.22
2023-04-15T23:15:09.176Z,99251.47
2023-04-15T23:17:37.675Z,99248.81
2023-04-15T23:20:10.255Z,99256.81
2023-04-15T23:22:44.161Z,99263.28
2023-04-15T23:25:14.051Z,99263.06
2023-04-15T23:27:42.543Z,99259.56
2023-04-15T23:30:15.285Z,99261.84
2023-04-15T23:32:43.862Z,99267.84
2023-04-15T23:35:11.380Z,99264.16
2023-04-15T23:37:42.205Z,99268.13
2023-04-15T23:40:12.876Z,99272.13
2023-04-15T23:42:40.933Z,99268.75
2023-04-15T23:45:11.651Z,99282.22
2023-04-15T23:47:41.671Z,99276.31
2023-04-15T23:50:11.189Z,99279.13
2023-04-15T23:52:41.154Z,99272.94
2023-04-15T23:55:12.510Z,99277.44
2023-04-15T23:57:43.022Z,99280.44
